createdAt,value
2022-11-24T00:04:40.363Z,28.17
2022-11-24T00:09:42.134Z,27.48
2022-11-24T00:14:44.220Z,27.58
2022-11-24T00:19:46.046Z,28.60
2022-11-24T00:24:47.849Z,28.75
2022-11-24T00:29:49.603Z,28.38
2022-11-24T00:34:51.366Z,28.30
2022-11-24T00:39:53.153Z,28.15
2022-11-24T00:44:54.915Z,27.98
2022-11-24T00:49:56.770Z,27.52
2022-11-24T00:54:58.540Z,28.30
2022-11-24T01:00:00.361Z,27.75
2022-11-24T01:05:03.498Z,27.70
2022-11-24T01:10:05.837Z,26.85
2022-11-24T01:15:08.026Z,28.52
2022-11-24T01:20:10.363Z,27.98
2022-11-24T01:25:12.355Z,28.80
2022-11-24T01:30:14.151Z,28.10
2022-11-24T01:35:15.937Z,27.75
2022-11-24T01:40:17.735Z,28.13
2022-11-24T01:45:36.251Z,27.05
2022-11-24T01:50:38.101Z,26.67
2022-11-24T01:55:41.393Z,26.05
2022-11-24T02:00:45.560Z,25.63
2022-11-24T02:06:05.005Z,25.40
2022-11-24T02:16:11.860Z,26.10
2022-11-24T02:21:16.238Z,25.60
2022-11-24T02:26:36.314Z,25.92
2022-11-24T02:31:41.666Z,25.02
2022-11-24T02:36:43.526Z,24.83
2022-11-24T02:41:54.305Z,25.13
2022-11-24T02:47:03.991Z,24.10
2022-11-24T02:52:07.033Z,25.60
2022-11-24T02:57:09.336Z,25.25
2022-11-24T03:02:11.102Z,26.55
2022-11-24T03:07:12.928Z,25.45
2022-11-24T03:12:15.011Z,28.15
2022-11-24T03:17:16.768Z,30.40
2022-11-24T03:22:18.551Z,30.13
2022-11-24T03:27:21.099Z,30.50
2022-11-24T03:32:23.017Z,30.55
2022-11-24T03:37:24.824Z,30.08
2022-11-24T03:42:26.626Z,27.83
2022-11-24T03:47:28.407Z,31.13
2022-11-24T03:52:30.225Z,30.25
2022-11-24T03:57:31.991Z,29.30
2022-11-24T04:02:33.812Z,29.65
2022-11-24T04:07:35.737Z,29.65
2022-11-24T04:12:46.379Z,28.63
2022-11-24T04:17:49.747Z,28.63
2022-11-24T04:22:52.247Z,29.35
2022-11-24T04:27:56.062Z,29.23
2022-11-24T04:32:57.851Z,29.48
2022-11-24T04:38:03.061Z,27.42
2022-11-24T04:43:04.836Z,28.02
2022-11-24T04:48:06.708Z,28.00
2022-11-24T04:53:10.353Z,27.98
2022-11-24T04:58:12.412Z,29.30
2022-11-24T05:03:15.350Z,30.08
2022-11-24T05:08:17.066Z,35.95
2022-11-24T05:13:18.758Z,48.03
2022-11-24T05:18:20.422Z,46.75
2022-11-24T05:23:22.222Z,40.63
2022-11-24T05:28:23.958Z,39.00
2022-11-24T05:33:28.251Z,37.13
2022-11-24T05:38:30.892Z,34.53
2022-11-24T05:43:32.652Z,33.72
2022-11-24T05:48:34.346Z,44.60
2022-11-24T05:53:36.017Z,43.10
2022-11-24T05:58:37.609Z,36.03
2022-11-24T06:03:39.184Z,36.08
2022-11-24T06:08:40.769Z,34.00
2022-11-24T06:13:42.672Z,33.25
2022-11-24T06:18:44.385Z,31.67
2022-11-24T06:23:48.618Z,31.60
2022-11-24T06:28:50.142Z,31.40
2022-11-24T06:33:51.714Z,33.17
2022-11-24T06:38:54.006Z,33.50
2022-11-24T06:43:55.677Z,32.35
2022-11-24T06:48:57.433Z,32.42
2022-11-24T06:53:59.200Z,30.92
2022-11-24T06:59:01.338Z,32.17
2022-11-24T07:04:03.135Z,32.17
2022-11-24T07:09:04.855Z,33.08
2022-11-24T07:14:06.959Z,31.55
2022-11-24T07:19:10.748Z,33.65
2022-11-24T07:24:12.431Z,33.95
2022-11-24T07:29:14.049Z,34.90
2022-11-24T07:34:15.677Z,35.33
2022-11-24T07:39:17.765Z,38.03
2022-11-24T07:44:19.365Z,37.72
2022-11-24T07:49:20.951Z,38.80
2022-11-24T07:54:22.557Z,36.95
2022-11-24T07:59:24.137Z,36.80
2022-11-24T08:04:25.720Z,34.55
2022-11-24T08:09:27.253Z,41.78
2022-11-24T08:14:29.040Z,37.78
2022-11-24T08:19:32.312Z,38.67
2022-11-24T08:24:34.029Z,37.63
2022-11-24T08:29:35.735Z,37.38
2022-11-24T08:34:37.620Z,36.70
2022-11-24T08:39:39.180Z,37.38
2022-11-24T08:44:40.748Z,35.20
2022-11-24T08:49:42.348Z,40.13
2022-11-24T08:54:44.837Z,40.33
2022-11-24T08:59:46.449Z,38.47
2022-11-24T09:04:48.039Z,36.63
2022-11-24T09:09:49.640Z,35.92
2022-11-24T09:14:51.201Z,36.33
2022-11-24T09:25:11.676Z,29.73
2022-11-24T09:30:13.852Z,31.73
2022-11-24T09:35:15.487Z,30.85
2022-11-24T09:40:17.668Z,28.15
2022-11-24T09:46:05.174Z,31.95
2022-11-24T09:51:11.677Z,32.08
2022-11-24T09:56:22.266Z,29.55
2022-11-24T10:01:31.025Z,32.70
2022-11-24T10:07:23.297Z,28.13
2022-11-24T10:12:55.619Z,28.50
2022-11-24T10:18:05.785Z,28.88
2022-11-24T10:23:47.403Z,26.67
2022-11-24T10:28:55.246Z,28.20
2022-11-24T10:34:18.058Z,28.23
2022-11-24T10:40:00.043Z,28.65
2022-11-24T10:45:22.795Z,30.40
2022-11-24T10:50:27.136Z,28.73
2022-11-24T10:55:56.545Z,28.10
2022-11-24T11:06:10.964Z,29.67
2022-11-24T11:11:29.767Z,34.40
2022-11-24T11:16:43.657Z,34.13
2022-11-24T11:21:45.232Z,33.30
2022-11-24T11:26:46.782Z,34.83
2022-11-24T11:37:28.321Z,31.85
2022-11-24T11:43:01.825Z,31.52
2022-11-24T11:48:20.305Z,32.75
2022-11-24T11:53:38.228Z,30.33
2022-11-24T11:59:11.693Z,30.48
2022-11-24T12:04:34.947Z,31.38
2022-11-24T12:09:55.186Z,30.48
2022-11-24T12:15:34.734Z,30.85
2022-11-24T12:20:52.337Z,31.63
2022-11-24T12:26:14.167Z,30.77
2022-11-24T12:31:36.793Z,30.90
2022-11-24T12:36:41.380Z,32.97
2022-11-24T12:42:01.759Z,30.98
2022-11-24T12:47:09.351Z,33.70
2022-11-24T12:52:31.672Z,31.63
2022-11-24T12:57:56.449Z,35.05
2022-11-24T13:03:13.176Z,34.40
2022-11-24T13:08:16.042Z,32.33
2022-11-24T13:13:17.949Z,35.70
2022-11-24T13:18:53.466Z,35.63
2022-11-24T13:23:58.662Z,33.20
2022-11-24T13:29:17.931Z,36.90
2022-11-24T13:34:42.707Z,36.17
2022-11-24T13:39:50.720Z,35.05
2022-11-24T13:44:54.821Z,38.83
2022-11-24T13:49:57.101Z,45.55
2022-11-24T13:54:59.148Z,38.33
2022-11-24T14:00:01.704Z,37.17
2022-11-24T14:05:03.619Z,39.65
2022-11-24T14:10:05.891Z,39.20
2022-11-24T14:15:27.140Z,35.38
2022-11-24T14:20:28.879Z,37.03
2022-11-24T14:25:32.353Z,36.30
2022-11-24T14:30:34.376Z,37.08
2022-11-24T14:35:36.474Z,34.70
2022-11-24T14:40:50.709Z,34.67
2022-11-24T14:45:56.421Z,32.33
2022-11-24T14:51:19.323Z,35.40
2022-11-24T14:56:26.335Z,35.13
2022-11-24T15:01:27.936Z,39.00
2022-11-24T15:06:29.614Z,38.25
2022-11-24T15:11:32.684Z,42.13
2022-11-24T15:16:34.288Z,46.13
2022-11-24T15:21:37.094Z,51.25
2022-11-24T15:26:42.193Z,43.38
2022-11-24T15:31:49.394Z,42.05
2022-11-24T15:36:54.050Z,40.75
2022-11-24T15:41:55.664Z,45.20
2022-11-24T15:46:57.279Z,50.83
2022-11-24T15:51:59.029Z,53.88
2022-11-24T15:57:00.619Z,42.67
2022-11-24T16:02:02.245Z,42.85
2022-11-24T16:07:06.268Z,43.53
2022-11-24T16:12:08.746Z,42.85
2022-11-24T16:17:10.318Z,43.22
2022-11-24T16:22:11.889Z,45.38
2022-11-24T16:27:13.427Z,44.95
2022-11-24T16:32:15.026Z,43.15
2022-11-24T16:37:16.608Z,45.45
2022-11-24T16:42:18.275Z,43.72
2022-11-24T16:47:20.133Z,43.00
2022-11-24T16:52:21.719Z,44.08
2022-11-24T16:57:23.303Z,49.58
2022-11-24T17:02:25.103Z,64.10
2022-11-24T17:07:26.909Z,81.22
2022-11-24T17:12:28.713Z,75.45
2022-11-24T17:17:30.298Z,74.80
2022-11-24T17:22:31.857Z,64.50
2022-11-24T17:27:33.446Z,64.38
2022-11-24T17:32:35.138Z,61.95
2022-11-24T17:37:37.138Z,57.72
2022-11-24T17:42:38.701Z,56.13
2022-11-24T17:47:40.237Z,59.88
2022-11-24T17:52:41.782Z,56.95
2022-11-24T17:57:43.342Z,57.63
2022-11-24T18:02:44.936Z,54.65
2022-11-24T18:07:46.640Z,53.47
2022-11-24T18:12:48.210Z,52.53
2022-11-24T18:17:52.384Z,52.53
2022-11-24T18:23:09.308Z,51.25
2022-11-24T18:28:10.889Z,54.05
2022-11-24T18:33:12.496Z,55.45
2022-11-24T18:38:14.039Z,53.88
2022-11-24T18:43:15.592Z,57.50
2022-11-24T18:48:17.159Z,50.75
2022-11-24T18:53:19.941Z,48.67
2022-11-24T18:58:21.630Z,44.97
2022-11-24T19:03:23.200Z,41.28
2022-11-24T19:08:24.749Z,42.17
2022-11-24T19:13:26.319Z,37.47
2022-11-24T19:18:31.119Z,38.72
2022-11-24T19:23:32.705Z,40.30
2022-11-24T19:28:34.410Z,39.75
2022-11-24T19:33:36.179Z,39.20
2022-11-24T19:38:38.171Z,43.05
2022-11-24T19:43:40.875Z,40.30
2022-11-24T19:48:44.446Z,45.25
2022-11-24T19:53:46.386Z,49.78
2022-11-24T19:58:48.733Z,47.60
2022-11-24T20:04:01.053Z,49.42
2022-11-24T20:09:05.504Z,52.30
2022-11-24T20:14:10.082Z,53.00
2022-11-24T20:19:13.399Z,56.40
2022-11-24T20:24:24.659Z,54.60
2022-11-24T20:29:29.193Z,54.28
2022-11-24T20:34:30.803Z,54.88
2022-11-24T20:39:32.370Z,56.70
2022-11-24T20:44:34.231Z,56.55
2022-11-24T20:49:36.026Z,54.95
2022-11-24T20:54:38.382Z,58.00
2022-11-24T20:59:39.994Z,57.63
2022-11-24T21:04:41.735Z,59.60
2022-11-24T21:09:43.349Z,60.05
2022-11-24T21:14:44.881Z,67.18
2022-11-24T21:19:46.677Z,69.07
2022-11-24T21:24:48.225Z,69.95
2022-11-24T21:29:49.791Z,79.43
2022-11-24T21:34:51.334Z,86.93
2022-11-24T21:39:53.074Z,81.63
2022-11-24T21:44:54.699Z,73.70
2022-11-24T21:49:56.329Z,61.67
2022-11-24T21:54:57.895Z,59.15
2022-11-24T21:59:59.434Z,62.42
2022-11-24T22:05:01.101Z,61.40
2022-11-24T22:10:02.735Z,65.38
2022-11-24T22:15:04.559Z,69.00
2022-11-24T22:20:06.923Z,53.53
2022-11-24T22:25:08.640Z,50.08
2022-11-24T22:30:10.655Z,50.47
2022-11-24T22:35:12.199Z,45.88
2022-11-24T22:40:13.844Z,53.13
2022-11-24T22:45:15.410Z,52.25
2022-11-24T22:50:17.020Z,47.53
2022-11-24T22:55:18.570Z,52.58
2022-11-24T23:00:20.428Z,48.42
2022-11-24T23:05:22.026Z,41.05
2022-11-24T23:10:23.625Z,45.10
2022-11-24T23:15:25.254Z,44.08
2022-11-24T23:20:26.912Z,44.58
2022-11-24T23:25:28.548Z,44.10
2022-11-24T23:30:30.159Z,45.67
2022-11-24T23:35:33.047Z,39.80
2022-11-24T23:40:34.680Z,32.72
2022-11-24T23:45:36.314Z,34.45
2022-11-24T23:50:37.886Z,39.15
2022-11-24T23:55:39.712Z,32.88
